sensor_id;sensor_type;location;lat;lon;timestamp;P1;durP1;ratioP1;P2;durP2;ratioP2
12852;SDS011;6495;51.808;7.478;2023-02-28T00:01:41;4.07;;;2.57;;
12852;SDS011;6495;51.808;7.478;2023-02-28T00:04:10;7.10;;;3.10;;
12852;SDS011;6495;51.808;7.478;2023-02-28T00:06:38;4.00;;;2.50;;
12852;SDS011;6495;51.808;7.478;2023-02-28T00:09:06;3.63;;;2.33;;
12852;SDS011;6495;51.808;7.478;2023-02-28T00:11:35;5.47;;;2.60;;
12852;SDS011;6495;51.808;7.478;2023-02-28T00:14:04;5.37;;;2.40;;
12852;SDS011;6495;51.808;7.478;2023-02-28T00:16:32;4.23;;;2.37;;
12852;SDS011;6495;51.808;7.478;2023-02-28T00:19:00;3.23;;;2.27;;
12852;SDS011;6495;51.808;7.478;2023-02-28T00:21:29;3.87;;;2.30;;
12852;SDS011;6495;51.808;7.478;2023-02-28T00:23:57;3.80;;;1.90;;
12852;SDS011;6495;51.808;7.478;2023-02-28T00:26:25;4.03;;;2.60;;
12852;SDS011;6495;51.808;7.478;2023-02-28T00:28:55;5.50;;;2.70;;
12852;SDS011;6495;51.808;7.478;2023-02-28T00:31:23;2.83;;;2.37;;
12852;SDS011;6495;51.808;7.478;2023-02-28T00:33:52;5.40;;;2.27;;
12852;SDS011;6495;51.808;7.478;2023-02-28T00:36:22;6.03;;;2.20;;
12852;SDS011;6495;51.808;7.478;2023-02-28T00:38:50;3.60;;;2.40;;
12852;SDS011;6495;51.808;7.478;2023-02-28T00:41:19;3.47;;;2.27;;
12852;SDS011;6495;51.808;7.478;2023-02-28T00:43:47;2.83;;;1.87;;
12852;SDS011;6495;51.808;7.478;2023-02-28T00:46:17;4.10;;;2.00;;
12852;SDS011;6495;51.808;7.478;2023-02-28T00:48:45;3.90;;;2.40;;
12852;SDS011;6495;51.808;7.478;2023-02-28T00:51:13;2.53;;;2.00;;
12852;SDS011;6495;51.808;7.478;2023-02-28T00:53:41;2.97;;;2.00;;
12852;SDS011;6495;51.808;7.478;2023-02-28T00:56:10;4.13;;;2.37;;
12852;SDS011;6495;51.808;7.478;2023-02-28T00:58:38;3.40;;;2.23;;
12852;SDS011;6495;51.808;7.478;2023-02-28T01:01:06;3.37;;;2.53;;
12852;SDS011;6495;51.808;7.478;2023-02-28T01:03:38;5.80;;;2.10;;
12852;SDS011;6495;51.808;7.478;2023-02-28T01:06:06;2.87;;;1.93;;
12852;SDS011;6495;51.808;7.478;2023-02-28T01:08:34;4.13;;;2.30;;
12852;SDS011;6495;51.808;7.478;2023-02-28T01:11:09;2.33;;;2.03;;
12852;SDS011;6495;51.808;7.478;2023-02-28T01:13:39;2.13;;;1.93;;
12852;SDS011;6495;51.808;7.478;2023-02-28T01:16:07;3.10;;;2.03;;
12852;SDS011;6495;51.808;7.478;2023-02-28T01:18:37;3.30;;;2.13;;
12852;SDS011;6495;51.808;7.478;2023-02-28T01:21:08;4.87;;;1.90;;
12852;SDS011;6495;51.808;7.478;2023-02-28T01:23:39;3.23;;;2.20;;
12852;SDS011;6495;51.808;7.478;2023-02-28T01:26:10;3.77;;;2.17;;
12852;SDS011;6495;51.808;7.478;2023-02-28T01:28:41;2.80;;;1.80;;
12852;SDS011;6495;51.808;7.478;2023-02-28T01:31:10;4.93;;;2.50;;
12852;SDS011;6495;51.808;7.478;2023-02-28T01:33:40;3.93;;;2.50;;
12852;SDS011;6495;51.808;7.478;2023-02-28T01:36:09;5.33;;;2.30;;
12852;SDS011;6495;51.808;7.478;2023-02-28T01:38:41;5.07;;;2.60;;
12852;SDS011;6495;51.808;7.478;2023-02-28T01:41:12;4.53;;;2.03;;
12852;SDS011;6495;51.808;7.478;2023-02-28T01:46:56;4.17;;;2.97;;
12852;SDS011;6495;51.808;7.478;2023-02-28T01:49:24;4.97;;;2.40;;
12852;SDS011;6495;51.808;7.478;2023-02-28T01:51:53;4.07;;;2.87;;
12852;SDS011;6495;51.808;7.478;2023-02-28T01:54:25;4.03;;;2.93;;
12852;SDS011;6495;51.808;7.478;2023-02-28T01:57:03;3.23;;;2.00;;
12852;SDS011;6495;51.808;7.478;2023-02-28T01:59:35;4.43;;;2.40;;
12852;SDS011;6495;51.808;7.478;2023-02-28T02:02:13;4.37;;;2.47;;
12852;SDS011;6495;51.808;7.478;2023-02-28T02:04:44;4.70;;;2.30;;
12852;SDS011;6495;51.808;7.478;2023-02-28T02:07:21;2.30;;;2.00;;
12852;SDS011;6495;51.808;7.478;2023-02-28T02:09:56;2.80;;;2.00;;
12852;SDS011;6495;51.808;7.478;2023-02-28T02:12:34;3.53;;;1.90;;
12852;SDS011;6495;51.808;7.478;2023-02-28T02:15:23;2.90;;;2.20;;
12852;SDS011;6495;51.808;7.478;2023-02-28T02:18:01;5.30;;;2.27;;
12852;SDS011;6495;51.808;7.478;2023-02-28T02:20:46;3.60;;;2.27;;
12852;SDS011;6495;51.808;7.478;2023-02-28T02:23:57;2.67;;;2.00;;
12852;SDS011;6495;51.808;7.478;2023-02-28T02:27:20;2.17;;;1.73;;
12852;SDS011;6495;51.808;7.478;2023-02-28T02:30:14;1.90;;;1.70;;
12852;SDS011;6495;51.808;7.478;2023-02-28T02:36:41;2.87;;;2.20;;
12852;SDS011;6495;51.808;7.478;2023-02-28T02:39:18;2.90;;;1.90;;
12852;SDS011;6495;51.808;7.478;2023-02-28T02:41:58;3.30;;;2.10;;
12852;SDS011;6495;51.808;7.478;2023-02-28T02:44:39;3.00;;;2.27;;
12852;SDS011;6495;51.808;7.478;2023-02-28T02:47:16;3.87;;;2.17;;
12852;SDS011;6495;51.808;7.478;2023-02-28T02:49:49;3.80;;;2.03;;
12852;SDS011;6495;51.808;7.478;2023-02-28T02:52:23;5.23;;;2.40;;
12852;SDS011;6495;51.808;7.478;2023-02-28T02:54:59;3.50;;;1.90;;
12852;SDS011;6495;51.808;7.478;2023-02-28T02:57:31;3.70;;;2.37;;
12852;SDS011;6495;51.808;7.478;2023-02-28T03:00:06;2.60;;;2.00;;
12852;SDS011;6495;51.808;7.478;2023-02-28T03:02:37;2.00;;;1.80;;
12852;SDS011;6495;51.808;7.478;2023-02-28T03:05:14;2.10;;;1.90;;
12852;SDS011;6495;51.808;7.478;2023-02-28T03:07:49;2.20;;;2.00;;
12852;SDS011;6495;51.808;7.478;2023-02-28T03:10:28;2.50;;;2.10;;
12852;SDS011;6495;51.808;7.478;2023-02-28T03:19:08;2.73;;;2.20;;
12852;SDS011;6495;51.808;7.478;2023-02-28T03:22:09;3.03;;;2.23;;
12852;SDS011;6495;51.808;7.478;2023-02-28T03:24:53;4.30;;;1.83;;
12852;SDS011;6495;51.808;7.478;2023-02-28T03:27:29;5.73;;;2.67;;
12852;SDS011;6495;51.808;7.478;2023-02-28T03:30:05;3.67;;;2.30;;
12852;SDS011;6495;51.808;7.478;2023-02-28T03:32:38;3.07;;;2.60;;
12852;SDS011;6495;51.808;7.478;2023-02-28T03:35:18;4.37;;;2.33;;
12852;SDS011;6495;51.808;7.478;2023-02-28T03:37:53;5.73;;;2.53;;
12852;SDS011;6495;51.808;7.478;2023-02-28T03:40:29;2.83;;;2.20;;
12852;SDS011;6495;51.808;7.478;2023-02-28T03:43:03;8.53;;;3.20;;
12852;SDS011;6495;51.808;7.478;2023-02-28T03:45:40;6.30;;;2.40;;
12852;SDS011;6495;51.808;7.478;2023-02-28T03:48:12;4.73;;;2.70;;
12852;SDS011;6495;51.808;7.478;2023-02-28T03:50:47;4.33;;;2.90;;
12852;SDS011;6495;51.808;7.478;2023-02-28T03:53:22;4.50;;;2.57;;
12852;SDS011;6495;51.808;7.478;2023-02-28T03:55:56;2.37;;;2.03;;
12852;SDS011;6495;51.808;7.478;2023-02-28T03:58:35;4.73;;;2.77;;
12852;SDS011;6495;51.808;7.478;2023-02-28T04:01:12;5.53;;;2.67;;
12852;SDS011;6495;51.808;7.478;2023-02-28T04:03:46;5.17;;;2.50;;
12852;SDS011;6495;51.808;7.478;2023-02-28T04:06:15;5.83;;;2.20;;
12852;SDS011;6495;51.808;7.478;2023-02-28T04:08:48;3.33;;;2.10;;
12852;SDS011;6495;51.808;7.478;2023-02-28T04:11:18;4.77;;;2.67;;
12852;SDS011;6495;51.808;7.478;2023-02-28T04:13:51;6.80;;;2.60;;
12852;SDS011;6495;51.808;7.478;2023-02-28T04:16:19;5.20;;;2.83;;
12852;SDS011;6495;51.808;7.478;2023-02-28T04:19:00;2.30;;;1.93;;
12852;SDS011;6495;51.808;7.478;2023-02-28T04:21:31;3.67;;;2.70;;
12852;SDS011;6495;51.808;7.478;2023-02-28T04:24:03;4.60;;;2.63;;
12852;SDS011;6495;51.808;7.478;2023-02-28T04:26:33;1.97;;;1.70;;
12852;SDS011;6495;51.808;7.478;2023-02-28T04:29:04;2.33;;;2.13;;
12852;SDS011;6495;51.808;7.478;2023-02-28T04:31:34;2.53;;;2.10;;
12852;SDS011;6495;51.808;7.478;2023-02-28T04:34:02;4.50;;;2.73;;
12852;SDS011;6495;51.808;7.478;2023-02-28T04:36:31;4.17;;;2.83;;
12852;SDS011;6495;51.808;7.478;2023-02-28T04:38:59;3.83;;;2.30;;
12852;SDS011;6495;51.808;7.478;2023-02-28T04:41:29;4.97;;;2.27;;
12852;SDS011;6495;51.808;7.478;2023-02-28T04:43:58;2.77;;;2.10;;
12852;SDS011;6495;51.808;7.478;2023-02-28T04:46:26;3.93;;;2.43;;
12852;SDS011;6495;51.808;7.478;2023-02-28T04:48:55;3.60;;;2.33;;
12852;SDS011;6495;51.808;7.478;2023-02-28T04:51:23;3.10;;;2.60;;
12852;SDS011;6495;51.808;7.478;2023-02-28T04:53:51;4.33;;;2.37;;
12852;SDS011;6495;51.808;7.478;2023-02-28T04:56:20;2.23;;;1.83;;
12852;SDS011;6495;51.808;7.478;2023-02-28T04:58:50;3.40;;;2.50;;
12852;SDS011;6495;51.808;7.478;2023-02-28T05:01:21;3.60;;;2.40;;
12852;SDS011;6495;51.808;7.478;2023-02-28T05:03:52;3.27;;;2.37;;
12852;SDS011;6495;51.808;7.478;2023-02-28T05:06:23;4.10;;;2.47;;
12852;SDS011;6495;51.808;7.478;2023-02-28T05:08:54;2.77;;;2.10;;
12852;SDS011;6495;51.808;7.478;2023-02-28T05:11:23;6.53;;;3.20;;
12852;SDS011;6495;51.808;7.478;2023-02-28T05:13:57;3.30;;;2.20;;
12852;SDS011;6495;51.808;7.478;2023-02-28T05:16:25;4.27;;;2.27;;
12852;SDS011;6495;51.808;7.478;2023-02-28T05:18:53;4.30;;;2.37;;
12852;SDS011;6495;51.808;7.478;2023-02-28T05:21:26;2.47;;;1.93;;
12852;SDS011;6495;51.808;7.478;2023-02-28T05:24:00;3.40;;;2.10;;
12852;SDS011;6495;51.808;7.478;2023-02-28T05:26:33;2.80;;;2.17;;
12852;SDS011;6495;51.808;7.478;2023-02-28T05:29:04;3.53;;;2.17;;
12852;SDS011;6495;51.808;7.478;2023-02-28T05:31:33;2.33;;;1.77;;
12852;SDS011;6495;51.808;7.478;2023-02-28T05:34:01;2.90;;;2.40;;
12852;SDS011;6495;51.808;7.478;2023-02-28T05:36:30;5.10;;;2.50;;
12852;SDS011;6495;51.808;7.478;2023-02-28T05:38:59;5.23;;;2.53;;
12852;SDS011;6495;51.808;7.478;2023-02-28T05:41:28;5.17;;;2.90;;
12852;SDS011;6495;51.808;7.478;2023-02-28T05:43:57;5.67;;;2.50;;
12852;SDS011;6495;51.808;7.478;2023-02-28T05:46:27;2.20;;;1.80;;
12852;SDS011;6495;51.808;7.478;2023-02-28T05:48:55;5.77;;;2.10;;
12852;SDS011;6495;51.808;7.478;2023-02-28T05:51:26;2.53;;;1.77;;
12852;SDS011;6495;51.808;7.478;2023-02-28T05:53:58;3.43;;;1.90;;
12852;SDS011;6495;51.808;7.478;2023-02-28T05:56:27;2.80;;;1.93;;
12852;SDS011;6495;51.808;7.478;2023-02-28T05:58:56;3.67;;;2.13;;
12852;SDS011;6495;51.808;7.478;2023-02-28T06:01:30;3.60;;;2.37;;
12852;SDS011;6495;51.808;7.478;2023-02-28T06:04:02;3.23;;;2.00;;
12852;SDS011;6495;51.808;7.478;2023-02-28T06:06:32;3.27;;;1.87;;
12852;SDS011;6495;51.808;7.478;2023-02-28T06:09:02;3.47;;;2.30;;
12852;SDS011;6495;51.808;7.478;2023-02-28T06:11:31;3.50;;;2.27;;
12852;SDS011;6495;51.808;7.478;2023-02-28T06:14:00;5.80;;;2.30;;
12852;SDS011;6495;51.808;7.478;2023-02-28T06:16:31;2.57;;;1.90;;
12852;SDS011;6495;51.808;7.478;2023-02-28T06:19:02;6.47;;;1.80;;
12852;SDS011;6495;51.808;7.478;2023-02-28T06:21:31;2.77;;;1.87;;
12852;SDS011;6495;51.808;7.478;2023-02-28T06:23:59;4.10;;;2.30;;
12852;SDS011;6495;51.808;7.478;2023-02-28T06:26:28;1.80;;;1.50;;
12852;SDS011;6495;51.808;7.478;2023-02-28T06:28:56;2.70;;;1.80;;
12852;SDS011;6495;51.808;7.478;2023-02-28T06:31:24;3.17;;;2.23;;
12852;SDS011;6495;51.808;7.478;2023-02-28T06:33:56;1.83;;;1.70;;
12852;SDS011;6495;51.808;7.478;2023-02-28T06:36:25;3.00;;;1.97;;
12852;SDS011;6495;51.808;7.478;2023-02-28T06:38:53;3.50;;;2.63;;
12852;SDS011;6495;51.808;7.478;2023-02-28T06:41:22;3.47;;;1.90;;
12852;SDS011;6495;51.808;7.478;2023-02-28T06:43:51;2.00;;;1.73;;
12852;SDS011;6495;51.808;7.478;2023-02-28T06:46:20;2.10;;;1.77;;
12852;SDS011;6495;51.808;7.478;2023-02-28T06:48:49;1.80;;;1.70;;
12852;SDS011;6495;51.808;7.478;2023-02-28T06:51:19;3.77;;;2.20;;
12852;SDS011;6495;51.808;7.478;2023-02-28T06:53:48;2.50;;;2.00;;
12852;SDS011;6495;51.808;7.478;2023-02-28T06:56:17;3.03;;;2.27;;
12852;SDS011;6495;51.808;7.478;2023-02-28T06:58:46;2.67;;;2.43;;
12852;SDS011;6495;51.808;7.478;2023-02-28T07:01:15;3.70;;;2.10;;
12852;SDS011;6495;51.808;7.478;2023-02-28T07:03:45;3.33;;;2.20;;
12852;SDS011;6495;51.808;7.478;2023-02-28T07:06:20;2.63;;;2.43;;
12852;SDS011;6495;51.808;7.478;2023-02-28T07:08:49;3.13;;;2.30;;
12852;SDS011;6495;51.808;7.478;2023-02-28T07:11:19;3.53;;;2.27;;
12852;SDS011;6495;51.808;7.478;2023-02-28T07:13:48;3.57;;;2.60;;
12852;SDS011;6495;51.808;7.478;2023-02-28T07:16:17;5.53;;;2.37;;
12852;SDS011;6495;51.808;7.478;2023-02-28T07:18:46;4.27;;;2.53;;
12852;SDS011;6495;51.808;7.478;2023-02-28T07:21:14;2.50;;;1.87;;
12852;SDS011;6495;51.808;7.478;2023-02-28T07:23:44;3.40;;;2.23;;
12852;SDS011;6495;51.808;7.478;2023-02-28T07:26:13;4.17;;;2.60;;
12852;SDS011;6495;51.808;7.478;2023-02-28T07:28:44;4.03;;;2.63;;
12852;SDS011;6495;51.808;7.478;2023-02-28T07:31:14;4.73;;;2.50;;
12852;SDS011;6495;51.808;7.478;2023-02-28T07:33:44;5.87;;;2.90;;
12852;SDS011;6495;51.808;7.478;2023-02-28T07:36:13;3.63;;;2.63;;
12852;SDS011;6495;51.808;7.478;2023-02-28T07:38:46;6.30;;;2.53;;
12852;SDS011;6495;51.808;7.478;2023-02-28T07:41:16;4.83;;;3.03;;
12852;SDS011;6495;51.808;7.478;2023-02-28T07:43:47;4.23;;;2.73;;
12852;SDS011;6495;51.808;7.478;2023-02-28T07:46:16;3.93;;;2.87;;
12852;SDS011;6495;51.808;7.478;2023-02-28T07:48:46;3.20;;;2.53;;
12852;SDS011;6495;51.808;7.478;2023-02-28T07:51:14;3.50;;;2.83;;
12852;SDS011;6495;51.808;7.478;2023-02-28T07:53:42;4.03;;;2.77;;
12852;SDS011;6495;51.808;7.478;2023-02-28T07:56:12;2.67;;;2.03;;
12852;SDS011;6495;51.808;7.478;2023-02-28T07:58:40;3.03;;;2.43;;
12852;SDS011;6495;51.808;7.478;2023-02-28T08:01:08;6.53;;;3.40;;
12852;SDS011;6495;51.808;7.478;2023-02-28T08:03:38;4.17;;;2.47;;
12852;SDS011;6495;51.808;7.478;2023-02-28T08:06:08;4.93;;;2.67;;
12852;SDS011;6495;51.808;7.478;2023-02-28T08:08:44;3.57;;;2.63;;
12852;SDS011;6495;51.808;7.478;2023-02-28T08:11:13;5.27;;;2.53;;
12852;SDS011;6495;51.808;7.478;2023-02-28T08:13:43;3.90;;;3.00;;
12852;SDS011;6495;51.808;7.478;2023-02-28T08:16:12;3.00;;;2.00;;
12852;SDS011;6495;51.808;7.478;2023-02-28T08:18:44;3.13;;;2.30;;
12852;SDS011;6495;51.808;7.478;2023-02-28T08:21:13;3.53;;;2.57;;
12852;SDS011;6495;51.808;7.478;2023-02-28T08:23:41;2.53;;;2.00;;
12852;SDS011;6495;51.808;7.478;2023-02-28T08:26:09;3.67;;;2.40;;
12852;SDS011;6495;51.808;7.478;2023-02-28T08:28:38;2.10;;;1.90;;
12852;SDS011;6495;51.808;7.478;2023-02-28T08:31:07;3.87;;;2.27;;
12852;SDS011;6495;51.808;7.478;2023-02-28T08:33:36;4.73;;;2.60;;
12852;SDS011;6495;51.808;7.478;2023-02-28T08:36:06;7.17;;;1.80;;
12852;SDS011;6495;51.808;7.478;2023-02-28T08:38:36;3.13;;;2.10;;
12852;SDS011;6495;51.808;7.478;2023-02-28T08:41:05;2.40;;;2.17;;
12852;SDS011;6495;51.808;7.478;2023-02-28T08:43:39;3.50;;;2.30;;
12852;SDS011;6495;51.808;7.478;2023-02-28T08:46:08;4.50;;;2.00;;
12852;SDS011;6495;51.808;7.478;2023-02-28T08:48:40;2.60;;;2.30;;
12852;SDS011;6495;51.808;7.478;2023-02-28T08:51:09;6.50;;;1.70;;
12852;SDS011;6495;51.808;7.478;2023-02-28T08:53:39;3.13;;;1.83;;
12852;SDS011;6495;51.808;7.478;2023-02-28T08:56:08;3.10;;;1.87;;
12852;SDS011;6495;51.808;7.478;2023-02-28T08:58:41;1.63;;;1.53;;
12852;SDS011;6495;51.808;7.478;2023-02-28T09:01:11;3.47;;;1.80;;
12852;SDS011;6495;51.808;7.478;2023-02-28T09:03:41;2.37;;;1.77;;
12852;SDS011;6495;51.808;7.478;2023-02-28T09:06:12;2.70;;;1.50;;
12852;SDS011;6495;51.808;7.478;2023-02-28T09:08:42;3.43;;;2.00;;
12852;SDS011;6495;51.808;7.478;2023-02-28T09:11:12;1.87;;;1.67;;
12852;SDS011;6495;51.808;7.478;2023-02-28T09:13:42;2.33;;;1.47;;
12852;SDS011;6495;51.808;7.478;2023-02-28T09:16:11;3.43;;;1.53;;
12852;SDS011;6495;51.808;7.478;2023-02-28T09:18:42;2.03;;;1.57;;
12852;SDS011;6495;51.808;7.478;2023-02-28T09:21:12;1.47;;;1.37;;
12852;SDS011;6495;51.808;7.478;2023-02-28T09:23:43;1.20;;;1.10;;
12852;SDS011;6495;51.808;7.478;2023-02-28T09:26:13;1.60;;;1.03;;
12852;SDS011;6495;51.808;7.478;2023-02-28T09:28:44;1.33;;;1.20;;
12852;SDS011;6495;51.808;7.478;2023-02-28T09:31:13;2.00;;;1.30;;
12852;SDS011;6495;51.808;7.478;2023-02-28T09:33:47;2.60;;;1.20;;
12852;SDS011;6495;51.808;7.478;2023-02-28T09:36:16;1.53;;;1.20;;
12852;SDS011;6495;51.808;7.478;2023-02-28T09:38:45;2.20;;;1.30;;
12852;SDS011;6495;51.808;7.478;2023-02-28T09:41:15;2.10;;;1.17;;
12852;SDS011;6495;51.808;7.478;2023-02-28T09:43:49;1.27;;;1.13;;
12852;SDS011;6495;51.808;7.478;2023-02-28T09:46:26;0.80;;;0.80;;
12852;SDS011;6495;51.808;7.478;2023-02-28T09:49:00;1.33;;;0.90;;
12852;SDS011;6495;51.808;7.478;2023-02-28T09:51:40;1.33;;;1.10;;
12852;SDS011;6495;51.808;7.478;2023-02-28T09:54:18;1.33;;;1.20;;
12852;SDS011;6495;51.808;7.478;2023-02-28T09:56:51;1.33;;;1.10;;
12852;SDS011;6495;51.808;7.478;2023-02-28T09:59:38;1.63;;;1.10;;
12852;SDS011;6495;51.808;7.478;2023-02-28T10:02:21;2.43;;;1.50;;
12852;SDS011;6495;51.808;7.478;2023-02-28T10:05:13;1.37;;;1.13;;
12852;SDS011;6495;51.808;7.478;2023-02-28T10:07:48;1.37;;;1.27;;
12852;SDS011;6495;51.808;7.478;2023-02-28T10:10:28;1.23;;;1.00;;
12852;SDS011;6495;51.808;7.478;2023-02-28T10:13:05;1.77;;;1.20;;
12852;SDS011;6495;51.808;7.478;2023-02-28T10:15:46;2.07;;;1.50;;
12852;SDS011;6495;51.808;7.478;2023-02-28T10:18:20;2.07;;;1.30;;
12852;SDS011;6495;51.808;7.478;2023-02-28T10:20:54;1.20;;;1.10;;
12852;SDS011;6495;51.808;7.478;2023-02-28T10:23:25;3.23;;;2.13;;
12852;SDS011;6495;51.808;7.478;2023-02-28T10:25:59;3.27;;;1.20;;
12852;SDS011;6495;51.808;7.478;2023-02-28T10:28:36;2.00;;;1.30;;
12852;SDS011;6495;51.808;7.478;2023-02-28T10:31:06;2.77;;;1.50;;
12852;SDS011;6495;51.808;7.478;2023-02-28T10:33:41;2.03;;;1.57;;
12852;SDS011;6495;51.808;7.478;2023-02-28T10:36:12;3.03;;;1.80;;
12852;SDS011;6495;51.808;7.478;2023-02-28T10:38:44;2.57;;;1.60;;
12852;SDS011;6495;51.808;7.478;2023-02-28T10:41:14;2.67;;;1.60;;
12852;SDS011;6495;51.808;7.478;2023-02-28T10:43:53;1.63;;;1.30;;
12852;SDS011;6495;51.808;7.478;2023-02-28T10:46:43;2.47;;;1.60;;
12852;SDS011;6495;51.808;7.478;2023-02-28T10:49:13;2.70;;;1.80;;
12852;SDS011;6495;51.808;7.478;2023-02-28T10:51:47;3.00;;;1.40;;
12852;SDS011;6495;51.808;7.478;2023-02-28T10:54:23;1.97;;;1.53;;
12852;SDS011;6495;51.808;7.478;2023-02-28T10:57:08;2.30;;;1.90;;
12852;SDS011;6495;51.808;7.478;2023-02-28T10:59:49;2.00;;;1.80;;
12852;SDS011;6495;51.808;7.478;2023-02-28T11:02:30;3.07;;;1.70;;
12852;SDS011;6495;51.808;7.478;2023-02-28T11:05:02;5.00;;;1.40;;
12852;SDS011;6495;51.808;7.478;2023-02-28T11:07:51;3.73;;;2.10;;
12852;SDS011;6495;51.808;7.478;2023-02-28T11:10:22;2.03;;;1.80;;
12852;SDS011;6495;51.808;7.478;2023-02-28T11:12:55;1.73;;;1.50;;
12852;SDS011;6495;51.808;7.478;2023-02-28T11:15:27;1.93;;;1.53;;
12852;SDS011;6495;51.808;7.478;2023-02-28T11:18:00;2.00;;;1.60;;
12852;SDS011;6495;51.808;7.478;2023-02-28T11:20:47;2.97;;;1.50;;
12852;SDS011;6495;51.808;7.478;2023-02-28T11:23:17;1.70;;;1.60;;
12852;SDS011;6495;51.808;7.478;2023-02-28T11:25:47;1.60;;;1.37;;
12852;SDS011;6495;51.808;7.478;2023-02-28T11:28:24;2.83;;;1.70;;
12852;SDS011;6495;51.808;7.478;2023-02-28T11:30:59;2.60;;;1.60;;
12852;SDS011;6495;51.808;7.478;2023-02-28T11:33:38;1.60;;;1.50;;
12852;SDS011;6495;51.808;7.478;2023-02-28T11:36:12;2.43;;;1.73;;
12852;SDS011;6495;51.808;7.478;2023-02-28T11:38:46;1.70;;;1.60;;
12852;SDS011;6495;51.808;7.478;2023-02-28T11:41:25;2.17;;;1.37;;
12852;SDS011;6495;51.808;7.478;2023-02-28T11:44:18;2.20;;;1.57;;
12852;SDS011;6495;51.808;7.478;2023-02-28T11:47:06;1.70;;;1.60;;
12852;SDS011;6495;51.808;7.478;2023-02-28T11:49:47;1.80;;;1.40;;
12852;SDS011;6495;51.808;7.478;2023-02-28T11:52:33;4.87;;;1.13;;
12852;SDS011;6495;51.808;7.478;2023-02-28T11:55:14;1.97;;;1.37;;
12852;SDS011;6495;51.808;7.478;2023-02-28T12:00:54;1.63;;;1.27;;
12852;SDS011;6495;51.808;7.478;2023-02-28T12:03:39;2.37;;;1.50;;
12852;SDS011;6495;51.808;7.478;2023-02-28T12:06:21;1.40;;;1.30;;
12852;SDS011;6495;51.808;7.478;2023-02-28T12:09:01;2.03;;;1.50;;
12852;SDS011;6495;51.808;7.478;2023-02-28T12:11:50;1.70;;;1.60;;
12852;SDS011;6495;51.808;7.478;2023-02-28T12:14:30;1.97;;;1.50;;
12852;SDS011;6495;51.808;7.478;2023-02-28T12:17:49;1.43;;;1.27;;
12852;SDS011;6495;51.808;7.478;2023-02-28T12:20:34;1.50;;;1.30;;
12852;SDS011;6495;51.808;7.478;2023-02-28T12:23:24;1.33;;;1.03;;
12852;SDS011;6495;51.808;7.478;2023-02-28T12:26:15;2.83;;;1.40;;
12852;SDS011;6495;51.808;7.478;2023-02-28T12:28:55;3.43;;;1.87;;
12852;SDS011;6495;51.808;7.478;2023-02-28T12:31:33;2.47;;;1.57;;
12852;SDS011;6495;51.808;7.478;2023-02-28T12:34:06;1.83;;;1.60;;
12852;SDS011;6495;51.808;7.478;2023-02-28T12:36:43;2.30;;;1.40;;
12852;SDS011;6495;51.808;7.478;2023-02-28T12:39:15;1.40;;;1.23;;
12852;SDS011;6495;51.808;7.478;2023-02-28T12:41:56;1.60;;;1.50;;
12852;SDS011;6495;51.808;7.478;2023-02-28T12:44:30;4.47;;;1.53;;
12852;SDS011;6495;51.808;7.478;2023-02-28T12:47:09;2.07;;;1.87;;
12852;SDS011;6495;51.808;7.478;2023-02-28T12:49:44;1.90;;;1.50;;
12852;SDS011;6495;51.808;7.478;2023-02-28T12:52:17;2.00;;;1.60;;
12852;SDS011;6495;51.808;7.478;2023-02-28T12:54:55;1.63;;;1.50;;
12852;SDS011;6495;51.808;7.478;2023-02-28T12:57:34;1.73;;;1.50;;
12852;SDS011;6495;51.808;7.478;2023-02-28T13:00:10;2.20;;;1.57;;
12852;SDS011;6495;51.808;7.478;2023-02-28T13:02:52;2.10;;;1.90;;
12852;SDS011;6495;51.808;7.478;2023-02-28T13:05:56;1.93;;;1.70;;
12852;SDS011;6495;51.808;7.478;2023-02-28T13:08:48;2.77;;;1.90;;
12852;SDS011;6495;51.808;7.478;2023-02-28T13:11:41;7.03;;;2.30;;
12852;SDS011;6495;51.808;7.478;2023-02-28T13:14:18;2.10;;;1.70;;
12852;SDS011;6495;51.808;7.478;2023-02-28T13:17:01;3.80;;;2.10;;
12852;SDS011;6495;51.808;7.478;2023-02-28T13:19:39;2.90;;;2.20;;
12852;SDS011;6495;51.808;7.478;2023-02-28T13:22:18;1.87;;;1.63;;
12852;SDS011;6495;51.808;7.478;2023-02-28T13:25:13;2.80;;;1.87;;
12852;SDS011;6495;51.808;7.478;2023-02-28T13:38:15;3.87;;;1.80;;
12852;SDS011;6495;51.808;7.478;2023-02-28T13:44:10;2.97;;;1.50;;
12852;SDS011;6495;51.808;7.478;2023-02-28T13:49:52;2.73;;;1.60;;
12852;SDS011;6495;51.808;7.478;2023-02-28T13:52:22;2.73;;;1.53;;
12852;SDS011;6495;51.808;7.478;2023-02-28T13:55:00;1.80;;;1.40;;
12852;SDS011;6495;51.808;7.478;2023-02-28T13:57:54;4.00;;;1.70;;
12852;SDS011;6495;51.808;7.478;2023-02-28T14:00:49;1.67;;;1.50;;
12852;SDS011;6495;51.808;7.478;2023-02-28T14:03:41;4.60;;;1.97;;
12852;SDS011;6495;51.808;7.478;2023-02-28T14:06:30;1.73;;;1.63;;
12852;SDS011;6495;51.808;7.478;2023-02-28T14:09:02;2.07;;;1.60;;
12852;SDS011;6495;51.808;7.478;2023-02-28T14:11:45;3.17;;;1.83;;
12852;SDS011;6495;51.808;7.478;2023-02-28T14:17:23;1.37;;;1.27;;
12852;SDS011;6495;51.808;7.478;2023-02-28T14:19:53;1.40;;;1.23;;
12852;SDS011;6495;51.808;7.478;2023-02-28T14:22:46;7.13;;;1.90;;
12852;SDS011;6495;51.808;7.478;2023-02-28T14:25:30;3.57;;;2.03;;
12852;SDS011;6495;51.808;7.478;2023-02-28T14:28:11;1.83;;;1.70;;
12852;SDS011;6495;51.808;7.478;2023-02-28T14:30:59;2.43;;;2.10;;
12852;SDS011;6495;51.808;7.478;2023-02-28T14:33:42;3.43;;;2.10;;
12852;SDS011;6495;51.808;7.478;2023-02-28T14:36:38;3.30;;;1.97;;
12852;SDS011;6495;51.808;7.478;2023-02-28T14:39:13;2.87;;;1.60;;
12852;SDS011;6495;51.808;7.478;2023-02-28T14:41:45;3.50;;;1.90;;
12852;SDS011;6495;51.808;7.478;2023-02-28T14:44:15;2.53;;;1.80;;
12852;SDS011;6495;51.808;7.478;2023-02-28T14:46:48;2.77;;;1.77;;
12852;SDS011;6495;51.808;7.478;2023-02-28T14:49:20;2.80;;;1.70;;
12852;SDS011;6495;51.808;7.478;2023-02-28T14:52:01;1.37;;;1.27;;
12852;SDS011;6495;51.808;7.478;2023-02-28T14:54:37;1.97;;;1.80;;
12852;SDS011;6495;51.808;7.478;2023-02-28T14:57:06;4.60;;;2.10;;
12852;SDS011;6495;51.808;7.478;2023-02-28T14:59:56;1.90;;;1.70;;
12852;SDS011;6495;51.808;7.478;2023-02-28T15:02:37;1.70;;;1.60;;
12852;SDS011;6495;51.808;7.478;2023-02-28T15:05:17;2.80;;;2.03;;
12852;SDS011;6495;51.808;7.478;2023-02-28T15:08:00;3.27;;;2.13;;
12852;SDS011;6495;51.808;7.478;2023-02-28T15:10:33;4.47;;;2.20;;
12852;SDS011;6495;51.808;7.478;2023-02-28T15:13:02;3.20;;;1.80;;
12852;SDS011;6495;51.808;7.478;2023-02-28T15:15:39;3.07;;;2.10;;
12852;SDS011;6495;51.808;7.478;2023-02-28T15:18:29;2.47;;;1.87;;
12852;SDS011;6495;51.808;7.478;2023-02-28T15:21:09;2.90;;;1.83;;
12852;SDS011;6495;51.808;7.478;2023-02-28T15:23:44;4.83;;;1.90;;
12852;SDS011;6495;51.808;7.478;2023-02-28T15:26:19;1.83;;;1.73;;
12852;SDS011;6495;51.808;7.478;2023-02-28T15:29:00;2.63;;;2.13;;
12852;SDS011;6495;51.808;7.478;2023-02-28T15:31:33;1.90;;;1.70;;
12852;SDS011;6495;51.808;7.478;2023-02-28T15:34:22;2.27;;;1.67;;
12852;SDS011;6495;51.808;7.478;2023-02-28T15:40:07;1.97;;;1.57;;
12852;SDS011;6495;51.808;7.478;2023-02-28T15:42:42;2.10;;;1.57;;
12852;SDS011;6495;51.808;7.478;2023-02-28T15:45:34;1.93;;;1.63;;
12852;SDS011;6495;51.808;7.478;2023-02-28T15:48:13;1.97;;;1.70;;
12852;SDS011;6495;51.808;7.478;2023-02-28T15:50:47;3.60;;;1.90;;
12852;SDS011;6495;51.808;7.478;2023-02-28T15:53:20;2.10;;;1.90;;
12852;SDS011;6495;51.808;7.478;2023-02-28T15:55:57;1.63;;;1.50;;
12852;SDS011;6495;51.808;7.478;2023-02-28T15:58:32;2.13;;;1.60;;
12852;SDS011;6495;51.808;7.478;2023-02-28T16:01:07;2.60;;;1.73;;
12852;SDS011;6495;51.808;7.478;2023-02-28T16:03:47;2.47;;;1.60;;
12852;SDS011;6495;51.808;7.478;2023-02-28T16:06:34;3.40;;;1.90;;
12852;SDS011;6495;51.808;7.478;2023-02-28T16:09:09;1.83;;;1.60;;
12852;SDS011;6495;51.808;7.478;2023-02-28T16:11:43;2.47;;;1.50;;
12852;SDS011;6495;51.808;7.478;2023-02-28T16:14:18;2.93;;;1.80;;
12852;SDS011;6495;51.808;7.478;2023-02-28T16:16:50;2.37;;;2.00;;
12852;SDS011;6495;51.808;7.478;2023-02-28T16:19:22;2.00;;;1.53;;
12852;SDS011;6495;51.808;7.478;2023-02-28T16:21:51;2.23;;;1.77;;
12852;SDS011;6495;51.808;7.478;2023-02-28T16:24:20;2.60;;;1.60;;